Time;durP1;ratioP1;P1;durP2;ratioP2;P2;SDS_P1;SDS_P2;PMS_P1;PMS_P2;Temp;Humidity;BMP_temperature;BMP_pressure;BME280_temperature;BME280_humidity;BME280_pressure;Samples;Min_cycle;Max_cycle;Signal;HPM_P1;HPM_P2
2023/10/29 00:02:19;;;;;;;5.22;2.97;;;;;;;12.04;64.93;99399.72;4452470;32;32907;-89
2023/10/29 00:04:48;;;;;;;6.50;1.00;;;;;;;11.99;65.15;99409.69;4450270;32;32573;-90
2023/10/29 00:07:16;;;;;;;1.58;1.45;;;;;;;11.90;65.64;99407.56;4448865;32;33190;-89
2023/10/29 00:09:44;;;;;;;0.85;0.80;;;;;;;11.79;65.76;99416.06;4451031;31;32703;-89
2023/10/29 00:12:12;;;;;;;0.40;0.40;;;;;;;11.61;66.37;99416.22;4455460;32;32735;-89
2023/10/29 00:14:40;;;;;;;0.95;0.95;;;;;;;11.83;65.97;99421.22;4455597;32;32742;-89
2023/10/29 00:17:08;;;;;;;1.40;0.98;;;;;;;11.87;65.70;99428.91;4449981;32;32668;-89
2023/10/29 00:19:36;;;;;;;3.75;0.60;;;;;;;11.80;65.65;99415.13;4437744;32;33153;-89
2023/10/29 00:22:04;;;;;;;1.05;1.02;;;;;;;11.79;65.80;99410.78;4464250;32;32710;-90
2023/10/29 00:24:32;;;;;;;0.75;0.75;;;;;;;11.80;65.53;99411.63;4456579;32;32817;-88
2023/10/29 00:27:00;;;;;;;1.23;1.15;;;;;;;11.94;65.28;99403.81;4456003;32;32768;-88
2023/10/29 00:29:27;;;;;;;0.10;0.10;;;;;;;11.75;65.60;99397.81;4451451;32;33685;-88
2023/10/29 00:31:55;;;;;;;0.20;0.20;;;;;;;11.88;64.73;99398.03;4452398;32;33342;-88
2023/10/29 00:34:23;;;;;;;1.83;1.73;;;;;;;11.66;65.08;99401.78;4452407;32;32803;-88
2023/10/29 00:36:51;;;;;;;1.70;1.55;;;;;;;11.74;65.37;99407.53;4447283;32;32771;-88
2023/10/29 00:39:20;;;;;;;3.05;2.47;;;;;;;11.68;65.69;99404.34;4460394;32;32889;-88
2023/10/29 00:41:48;;;;;;;1.02;0.68;;;;;;;11.83;64.89;99400.91;4439099;32;33393;-88
2023/10/29 00:44:15;;;;;;;0.62;0.62;;;;;;;11.77;65.48;99401.19;4452851;32;33684;-88
2023/10/29 00:46:43;;;;;;;1.00;0.88;;;;;;;11.83;64.99;99395.62;4453907;32;32202;-89
2023/10/29 00:49:12;;;;;;;1.40;1.30;;;;;;;11.74;65.22;99404.88;4450752;32;32098;-89
2023/10/29 00:51:40;;;;;;;0.85;0.65;;;;;;;11.73;65.00;99397.03;4450970;32;33318;-88
2023/10/29 00:54:08;;;;;;;0.73;0.73;;;;;;;11.77;64.91;99396.78;4476072;32;33768;-88
2023/10/29 00:56:36;;;;;;;1.00;0.95;;;;;;;11.71;64.94;99396.25;4449642;32;32266;-88
2023/10/29 00:59:03;;;;;;;3.28;2.35;;;;;;;11.69;64.92;99398.16;4461612;31;32641;-88
2023/10/29 01:01:34;;;;;;;2.83;0.75;;;;;;;11.57;65.36;99383.78;4453903;32;33088;-88
2023/10/29 01:04:04;;;;;;;1.55;1.00;;;;;;;11.67;64.34;99384.13;4455044;32;33622;-88
2023/10/29 01:06:33;;;;;;;0.80;0.80;;;;;;;11.52;64.64;99373.47;4463635;32;32281;-88
2023/10/29 01:09:01;;;;;;;2.92;0.82;;;;;;;11.37;65.60;99371.66;4465947;32;32767;-88
2023/10/29 01:11:29;;;;;;;0.62;0.50;;;;;;;11.52;65.46;99376.09;4465710;32;32964;-88
2023/10/29 01:13:57;;;;;;;0.55;0.32;;;;;;;11.42;65.58;99374.03;4470133;32;34556;-89
2023/10/29 01:16:25;;;;;;;0.62;0.60;;;;;;;11.60;65.04;99377.50;4459941;31;32594;-89
2023/10/29 01:18:55;;;;;;;1.58;1.48;;;;;;;11.59;64.62;99381.06;4466709;32;32508;-88
2023/10/29 01:21:24;;;;;;;0.40;0.40;;;;;;;11.67;64.37;99384.97;4453320;31;33858;-88
2023/10/29 01:23:52;;;;;;;3.33;0.85;;;;;;;11.51;64.88;99390.25;4456143;32;32765;-89
2023/10/29 01:26:20;;;;;;;1.10;1.05;;;;;;;11.60;64.69;99390.72;4456117;32;32291;-89
2023/10/29 01:28:48;;;;;;;1.65;1.45;;;;;;;11.61;64.58;99390.63;4458761;32;32977;-89
2023/10/29 01:31:16;;;;;;;0.32;0.32;;;;;;;11.48;64.41;99390.41;4462945;32;32921;-89
2023/10/29 01:33:45;;;;;;;0.43;0.40;;;;;;;11.50;65.02;99387.72;4451184;32;33054;-88
2023/10/29 01:36:13;;;;;;;0.70;0.70;;;;;;;11.57;64.78;99399.66;4457778;32;32473;-88
2023/10/29 01:38:40;;;;;;;0.20;0.20;;;;;;;11.49;64.94;99396.59;4449609;32;32789;-88
2023/10/29 01:41:10;;;;;;;0.30;0.30;;;;;;;11.46;64.87;99408.16;4474157;32;33166;-90
2023/10/29 01:43:37;;;;;;;1.20;1.12;;;;;;;11.28;65.75;99406.50;4450218;32;32883;-90
2023/10/29 01:46:05;;;;;;;0.88;0.88;;;;;;;11.88;63.31;99398.87;4454356;31;32232;-91
2023/10/29 01:48:34;;;;;;;0.52;0.52;;;;;;;11.95;62.86;99400.22;4453886;32;33104;-90
2023/10/29 01:51:05;;;;;;;1.10;1.00;;;;;;;11.55;64.30;99406.81;4457485;32;32758;-90
2023/10/29 01:53:39;;;;;;;0.75;0.75;;;;;;;11.34;65.63;99403.53;4462958;32;32637;-91
2023/10/29 01:56:26;;;;;;;0.28;0.28;;;;;;;11.40;65.55;99397.94;4462529;32;33115;-92
2023/10/29 01:59:31;;;;;;;3.25;1.55;;;;;;;11.39;65.75;99405.91;4426695;32;32352;-91
2023/10/29 02:02:01;;;;;;;2.80;1.95;;;;;;;11.37;66.11;99413.09;4409909;32;32916;-91
2023/10/29 02:04:51;;;;;;;0.55;0.47;;;;;;;11.67;65.48;99407.94;4412861;32;33498;-88
2023/10/29 02:07:19;;;;;;;2.42;0.65;;;;;;;11.94;64.60;99413.53;4404828;32;32911;-88
2023/10/29 02:09:47;;;;;;;0.95;0.75;;;;;;;11.96;64.56;99409.88;4402885;32;33328;-88
2023/10/29 02:12:15;;;;;;;1.70;1.00;;;;;;;11.61;65.65;99410.91;4406006;32;33004;-88
2023/10/29 02:14:43;;;;;;;0.45;0.45;;;;;;;11.41;66.99;99417.28;4411278;32;33791;-87
2023/10/29 02:17:11;;;;;;;0.85;0.85;;;;;;;11.60;66.48;99425.09;4414541;32;34240;-88
2023/10/29 02:19:40;;;;;;;0.75;0.62;;;;;;;11.68;66.03;99418.44;4409224;32;32526;-86
2023/10/29 02:22:07;;;;;;;1.92;1.27;;;;;;;11.69;66.95;99409.56;4407615;32;33677;-86
2023/10/29 02:24:59;;;;;;;0.75;0.75;;;;;;;11.70;67.17;99418.38;4398523;32;32777;-86
2023/10/29 02:27:27;;;;;;;1.08;0.82;;;;;;;11.67;67.62;99410.59;4408789;32;32803;-86
2023/10/29 02:29:55;;;;;;;0.70;0.70;;;;;;;11.70;67.63;99421.84;4396886;32;32680;-86
2023/10/29 02:32:22;;;;;;;1.12;1.02;;;;;;;11.77;67.96;99423.25;4417652;32;32986;-86
2023/10/29 02:34:50;;;;;;;0.65;0.65;;;;;;;11.75;68.00;99425.09;4409364;32;33797;-86
2023/10/29 02:37:20;;;;;;;1.30;1.30;;;;;;;11.81;67.77;99426.56;4416657;32;32997;-88
2023/10/29 02:39:48;;;;;;;0.62;0.40;;;;;;;11.82;67.92;99433.59;4402831;32;32870;-88
2023/10/29 02:42:17;;;;;;;2.90;1.73;;;;;;;11.88;67.81;99429.75;4411582;32;33934;-88
2023/10/29 02:44:45;;;;;;;0.82;0.82;;;;;;;11.93;67.64;99433.00;4403438;32;33841;-88
2023/10/29 02:47:13;;;;;;;2.45;1.67;;;;;;;11.98;67.48;99426.53;4395032;32;33281;-89
2023/10/29 02:49:43;;;;;;;0.57;0.57;;;;;;;11.96;67.62;99432.81;4407514;32;32797;-88
2023/10/29 02:52:11;;;;;;;1.42;1.02;;;;;;;11.91;67.62;99433.06;4408778;32;32913;-88
2023/10/29 02:54:39;;;;;;;2.00;1.10;;;;;;;11.87;68.12;99428.03;4419348;32;32667;-88
2023/10/29 02:57:08;;;;;;;1.62;1.00;;;;;;;11.80;68.18;99422.22;4412333;32;32360;-88
2023/10/29 02:59:36;;;;;;;1.40;1.37;;;;;;;11.68;68.44;99417.56;4400631;32;32953;-88
2023/10/29 03:02:05;;;;;;;1.33;1.23;;;;;;;11.80;68.27;99406.34;4413910;32;33592;-88
2023/10/29 03:04:34;;;;;;;0.62;0.60;;;;;;;11.86;67.83;99410.47;4408882;32;34582;-87
2023/10/29 03:07:02;;;;;;;0.98;0.98;;;;;;;11.91;67.67;99417.19;4402861;32;31803;-85
2023/10/29 03:09:31;;;;;;;0.73;0.73;;;;;;;11.84;67.87;99418.50;4413278;32;32429;-85
2023/10/29 03:11:58;;;;;;;0.17;0.17;;;;;;;11.90;68.00;99434.03;4415414;32;33158;-86
2023/10/29 03:14:26;;;;;;;1.50;0.82;;;;;;;12.04;67.79;99431.47;4410242;32;32458;-86
2023/10/29 03:16:54;;;;;;;0.30;0.30;;;;;;;12.05;68.00;99427.03;4402436;32;32316;-86
2023/10/29 03:19:22;;;;;;;3.83;2.47;;;;;;;12.08;67.68;99424.22;4399313;32;32804;-86
2023/10/29 03:21:50;;;;;;;1.20;1.10;;;;;;;12.09;67.93;99428.56;4398691;32;33246;-88
2023/10/29 03:24:17;;;;;;;0.65;0.65;;;;;;;12.24;67.50;99425.06;4407857;32;32805;-87
2023/10/29 03:26:45;;;;;;;0.25;0.25;;;;;;;12.28;67.63;99426.59;4410332;32;33153;-88
2023/10/29 03:29:13;;;;;;;0.77;0.77;;;;;;;12.41;66.65;99429.41;4414881;32;32374;-87
2023/10/29 03:31:41;;;;;;;0.93;0.93;;;;;;;12.45;66.80;99440.69;4397221;32;33221;-87
2023/10/29 03:34:11;;;;;;;1.40;1.00;;;;;;;12.53;66.71;99436.66;4417164;32;32824;-87
2023/10/29 03:36:38;;;;;;;0.40;0.40;;;;;;;12.48;66.14;99430.75;4410599;32;33682;-89
2023/10/29 03:39:07;;;;;;;0.52;0.30;;;;;;;12.35;66.63;99431.56;4410172;32;32878;-88
2023/10/29 03:41:34;;;;;;;1.62;0.90;;;;;;;12.23;67.33;99441.03;4411414;32;32929;-89
2023/10/29 03:44:03;;;;;;;2.15;1.25;;;;;;;12.20;68.34;99446.47;4415010;32;32993;-90
2023/10/29 03:46:51;;;;;;;1.00;0.93;;;;;;;12.21;67.65;99437.63;4412698;32;33453;-90
2023/10/29 03:49:55;;;;;;;1.92;0.77;;;;;;;12.32;68.14;99435.22;4431667;32;33508;-90
2023/10/29 03:52:50;;;;;;;0.65;0.57;;;;;;;12.21;68.16;99427.03;4426045;32;32970;-92
2023/10/29 03:55:50;;;;;;;3.22;1.02;;;;;;;12.36;67.72;99423.53;4405829;32;33570;-92
2023/10/29 03:58:41;;;;;;;1.00;1.00;;;;;;;12.30;68.30;99426.53;4384543;32;33844;-91
2023/10/29 04:01:32;;;;;;;1.25;0.57;;;;;;;12.42;67.96;99420.50;4394702;32;32737;-92
2023/10/29 04:05:25;;;;;;;1.00;0.95;;;;;;;12.43;67.75;99421.37;4325655;33;34728;-93
2023/10/29 04:08:16;;;;;;;0.43;0.43;;;;;;;12.45;67.34;99415.06;4335810;33;32647;-91
2023/10/29 04:10:44;;;;;;;1.37;1.30;;;;;;;12.36;68.23;99410.28;4349328;32;33157;-91
2023/10/29 04:13:13;;;;;;;3.65;1.20;;;;;;;12.39;68.23;99415.41;4351292;32;33261;-91
2023/10/29 04:15:53;;;;;;;0.60;0.60;;;;;;;12.44;68.45;99417.78;4340074;33;32865;-91
2023/10/29 04:19:05;;;;;;;0.30;0.30;;;;;;;12.41;68.55;99418.81;4323442;33;32350;-91
2023/10/29 04:21:48;;;;;;;1.83;1.48;;;;;;;12.46;68.54;99414.09;4321937;32;33340;-91
2023/10/29 04:25:01;;;;;;;0.65;0.47;;;;;;;12.61;67.57;99420.31;4353484;32;35610;-89
2023/10/29 04:27:29;;;;;;;0.68;0.45;;;;;;;12.70;68.24;99418.91;4341473;32;33365;-89
2023/10/29 04:29:58;;;;;;;3.30;0.50;;;;;;;12.71;67.75;99423.28;4337774;32;32368;-89
2023/10/29 04:32:26;;;;;;;0.85;0.73;;;;;;;12.79;67.29;99424.53;4349905;32;32363;-89
2023/10/29 04:34:54;;;;;;;0.52;0.52;;;;;;;12.68;68.22;99421.66;4351774;32;31877;-91
2023/10/29 04:37:54;;;;;;;1.65;1.10;;;;;;;12.82;67.65;99424.38;4371646;32;32602;-91
2023/10/29 04:40:38;;;;;;;0.50;0.50;;;;;;;13.05;66.53;99415.06;4413866;32;33143;-90
2023/10/29 04:43:06;;;;;;;1.42;1.33;;;;;;;13.19;65.67;99416.00;4402168;32;32609;-89
2023/10/29 04:45:34;;;;;;;1.23;0.82;;;;;;;13.21;65.17;99411.47;4410616;32;33813;-89
2023/10/29 04:48:02;;;;;;;0.82;0.82;;;;;;;13.17;65.06;99425.84;4387987;32;33896;-89
2023/10/29 04:50:32;;;;;;;3.10;1.70;;;;;;;13.07;64.84;99426.41;4401913;32;32509;-90
2023/10/29 04:53:02;;;;;;;1.33;1.23;;;;;;;13.06;64.95;99408.81;4402489;32;32846;-88
2023/10/29 04:55:30;;;;;;;4.03;1.30;;;;;;;12.81;65.49;99430.56;4400726;32;32529;-89
2023/10/29 04:57:58;;;;;;;3.50;1.23;;;;;;;12.68;66.01;99431.41;4391360;32;33649;-88
2023/10/29 05:00:25;;;;;;;1.35;1.25;;;;;;;12.67;66.35;99430.53;4402024;32;33179;-89
2023/10/29 05:02:53;;;;;;;0.93;0.93;;;;;;;12.69;65.96;99427.81;4401390;32;32384;-89
2023/10/29 05:05:21;;;;;;;0.70;0.50;;;;;;;12.37;67.00;99427.00;4397029;32;32866;-88
2023/10/29 05:07:49;;;;;;;5.50;2.53;;;;;;;12.27;67.60;99426.69;4399984;32;33277;-89
2023/10/29 05:10:16;;;;;;;1.48;1.37;;;;;;;12.18;68.35;99429.84;4403895;32;34588;-91
2023/10/29 05:13:09;;;;;;;0.25;0.25;;;;;;;12.20;68.35;99430.59;4414818;32;32283;-92
2023/10/29 05:16:34;;;;;;;1.17;1.05;;;;;;;12.35;67.83;99424.47;4369907;32;34490;-91
2023/10/29 05:19:43;;;;;;;1.10;0.62;;;;;;;12.48;67.62;99419.28;4326096;33;33652;-89
2023/10/29 05:22:11;;;;;;;0.62;0.62;;;;;;;12.34;67.87;99432.47;4328034;33;33772;-89
2023/10/29 05:24:39;;;;;;;0.20;0.20;;;;;;;12.33;68.05;99428.97;4332144;33;32482;-89
2023/10/29 05:27:06;;;;;;;5.70;0.98;;;;;;;12.34;68.33;99433.31;4334010;33;32829;-91
2023/10/29 05:29:35;;;;;;;0.90;0.60;;;;;;;12.45;68.34;99432.72;4330680;33;32900;-91
2023/10/29 05:32:24;;;;;;;1.00;0.95;;;;;;;12.40;68.42;99429.50;4333570;32;32793;-89
2023/10/29 05:34:52;;;;;;;1.45;1.12;;;;;;;12.75;67.07;99430.09;4365944;32;32640;-88
2023/10/29 05:37:19;;;;;;;1.98;1.05;;;;;;;12.38;67.55;99444.59;4383981;32;32760;-89
2023/10/29 05:39:47;;;;;;;0.70;0.70;;;;;;;12.35;68.48;99443.00;4347732;32;33228;-89
2023/10/29 05:42:15;;;;;;;1.05;0.98;;;;;;;12.40;68.50;99450.69;4359616;32;33506;-89
2023/10/29 05:44:43;;;;;;;0.52;0.43;;;;;;;12.31;68.93;99452.06;4367465;32;32848;-90
2023/10/29 05:47:15;;;;;;;0.40;0.40;;;;;;;12.45;68.47;99446.81;4384349;32;32533;-91
2023/10/29 05:49:43;;;;;;;2.62;1.75;;;;;;;12.36;69.02;99452.63;4363384;32;32932;-90
2023/10/29 05:52:12;;;;;;;4.37;1.70;;;;;;;12.33;69.01;99459.91;4362855;32;33874;-88
2023/10/29 05:54:40;;;;;;;1.35;0.85;;;;;;;12.47;68.32;99459.97;4375486;32;32402;-88
2023/10/29 05:57:07;;;;;;;0.93;0.73;;;;;;;12.42;68.14;99457.59;4374929;32;33086;-87
2023/10/29 05:59:35;;;;;;;1.15;0.70;;;;;;;12.45;68.33;99467.16;4376104;32;32942;-90
2023/10/29 06:02:08;;;;;;;0.95;0.68;;;;;;;12.35;68.84;99461.53;4396014;32;33869;-90
2023/10/29 06:04:36;;;;;;;1.30;0.93;;;;;;;12.42;68.66;99456.72;4378387;32;31824;-90
2023/10/29 06:07:08;;;;;;;1.58;1.50;;;;;;;12.39;68.88;99465.72;4390940;32;32657;-91
2023/10/29 06:09:39;;;;;;;1.95;1.33;;;;;;;12.60;67.77;99470.72;4391373;32;32799;-91
2023/10/29 06:12:08;;;;;;;5.20;1.83;;;;;;;12.43;68.92;99464.56;4377310;32;32714;-91
2023/10/29 06:14:36;;;;;;;1.08;1.08;;;;;;;12.48;68.72;99464.31;4386804;32;32525;-91
2023/10/29 06:17:05;;;;;;;0.80;0.80;;;;;;;12.57;68.51;99477.88;4389052;32;33744;-90
2023/10/29 06:19:52;;;;;;;1.48;1.27;;;;;;;12.67;68.32;99480.00;4365312;32;32784;-90
2023/10/29 06:22:21;;;;;;;2.28;1.23;;;;;;;12.63;68.77;99481.13;4348831;32;34291;-90
2023/10/29 06:24:49;;;;;;;1.48;1.37;;;;;;;12.53;70.00;99484.31;4356840;32;32030;-90
2023/10/29 06:27:17;;;;;;;5.18;1.52;;;;;;;12.69;68.71;99481.66;4359117;32;33356;-89
2023/10/29 06:29:45;;;;;;;1.65;1.12;;;;;;;12.74;69.23;99484.88;4361433;32;33071;-89
2023/10/29 06:32:13;;;;;;;5.25;2.55;;;;;;;12.77;69.02;99478.53;4343796;32;32754;-89
2023/10/29 06:34:41;;;;;;;3.33;0.77;;;;;;;12.99;68.16;99484.31;4370744;32;32601;-90
2023/10/29 06:37:10;;;;;;;1.45;1.35;;;;;;;12.95;68.46;99485.41;4368663;32;32820;-90
2023/10/29 06:39:38;;;;;;;0.85;0.70;;;;;;;12.83;69.12;99478.19;4359706;32;33888;-90
2023/10/29 06:42:06;;;;;;;2.47;1.12;;;;;;;13.02;67.99;99481.47;4357235;32;33169;-90
2023/10/29 06:44:35;;;;;;;0.37;0.37;;;;;;;13.24;67.11;99482.87;4354412;32;32015;-89
2023/10/29 06:47:03;;;;;;;1.23;1.08;;;;;;;13.16;67.47;99490.44;4369440;32;33924;-91
2023/10/29 06:49:31;;;;;;;0.28;0.28;;;;;;;12.98;67.59;99493.19;4370977;32;33649;-90
2023/10/29 06:52:00;;;;;;;1.73;1.60;;;;;;;12.68;69.07;99509.09;4393000;32;32787;-91
2023/10/29 06:54:28;;;;;;;0.98;0.88;;;;;;;12.90;69.00;99500.75;4393251;32;32518;-90
2023/10/29 06:56:55;;;;;;;0.65;0.65;;;;;;;13.03;68.35;99504.38;4380355;32;33729;-90
2023/10/29 06:59:25;;;;;;;0.40;0.40;;;;;;;13.01;68.53;99506.28;4391011;32;33226;-90
2023/10/29 07:01:52;;;;;;;0.10;0.10;;;;;;;13.19;68.39;99508.78;4391369;32;32765;-90
2023/10/29 07:04:20;;;;;;;0.35;0.30;;;;;;;13.00;69.11;99507.22;4378692;32;31866;-90
2023/10/29 07:06:49;;;;;;;0.50;0.50;;;;;;;12.82;69.85;99518.91;4370157;32;33290;-90
2023/10/29 07:09:18;;;;;;;2.22;0.68;;;;;;;13.03;69.37;99509.69;4380897;32;33574;-92
2023/10/29 07:11:52;;;;;;;1.00;0.90;;;;;;;13.02;69.61;99509.78;4381684;32;32469;-92
2023/10/29 07:14:59;;;;;;;0.88;0.85;;;;;;;13.56;68.33;99505.66;4348732;32;32863;-92
2023/10/29 07:17:34;;;;;;;0.60;0.60;;;;;;;13.48;68.72;99507.97;4354688;32;33086;-92
2023/10/29 07:20:04;;;;;;;1.17;1.10;;;;;;;13.38;68.30;99506.78;4348359;32;33226;-92
2023/10/29 07:22:33;;;;;;;0.90;0.90;;;;;;;13.36;69.35;99513.97;4370669;32;33667;-91
2023/10/29 07:25:00;;;;;;;0.65;0.65;;;;;;;13.54;68.72;99507.56;4359232;32;33855;-91
2023/10/29 07:27:28;;;;;;;0.98;0.95;;;;;;;13.51;68.67;99507.75;4360920;32;32334;-91
2023/10/29 07:30:18;;;;;;;1.42;1.17;;;;;;;13.50;68.87;99505.19;4354197;32;33939;-90
2023/10/29 07:32:46;;;;;;;1.27;1.05;;;;;;;13.43;68.91;99499.38;4372541;32;33164;-90
2023/10/29 07:35:14;;;;;;;1.17;1.10;;;;;;;12.94;71.31;99502.28;4385339;32;32367;-90
2023/10/29 07:37:42;;;;;;;2.50;1.40;;;;;;;13.21;70.78;99496.31;4384411;32;33701;-90
2023/10/29 07:40:10;;;;;;;1.23;1.23;;;;;;;13.51;69.71;99502.44;4377621;32;33325;-87
2023/10/29 07:42:37;;;;;;;0.93;0.93;;;;;;;13.53;69.49;99495.25;4379481;32;33998;-87
2023/10/29 07:45:08;;;;;;;1.48;0.95;;;;;;;13.67;69.12;99498.84;4379651;32;32265;-86
2023/10/29 07:47:37;;;;;;;1.37;0.73;;;;;;;13.55;69.16;99503.97;4378444;32;32836;-87
2023/10/29 07:50:13;;;;;;;0.82;0.82;;;;;;;13.70;69.66;99490.72;4390177;32;32970;-87
2023/10/29 07:52:40;;;;;;;1.42;0.50;;;;;;;13.78;70.30;99491.09;4392075;32;33887;-87
2023/10/29 07:55:09;;;;;;;2.00;0.85;;;;;;;13.67;70.84;99491.75;4373349;32;32952;-87
2023/10/29 07:57:38;;;;;;;1.75;1.65;;;;;;;13.79;70.56;99487.50;4379280;32;34672;-87
2023/10/29 08:00:14;;;;;;;2.28;1.77;;;;;;;13.63;71.07;99494.72;4378714;32;33191;-88
2023/10/29 08:02:44;;;;;;;1.90;1.12;;;;;;;14.00;70.57;99488.78;4386879;32;33768;-87
2023/10/29 08:05:12;;;;;;;1.48;1.35;;;;;;;14.10;69.65;99486.44;4385664;32;32255;-87
2023/10/29 08:11:05;;;;;;;6.12;2.80;;;;;;;13.96;71.50;99487.31;4366801;32;33676;-87
2023/10/29 08:13:33;;;;;;;1.55;1.08;;;;;;;14.44;70.50;99484.28;4391114;32;33474;-87
2023/10/29 08:16:02;;;;;;;1.45;1.25;;;;;;;14.44;69.93;99497.56;4380062;32;31978;-88
2023/10/29 08:18:33;;;;;;;0.88;0.88;;;;;;;14.69;69.54;99491.53;4393545;32;32952;-88
2023/10/29 08:21:03;;;;;;;1.73;1.62;;;;;;;14.72;69.70;99494.84;4376129;32;32973;-88
2023/10/29 08:23:31;;;;;;;1.60;1.50;;;;;;;14.66;70.54;99503.22;4389068;32;34041;-87
2023/10/29 08:25:59;;;;;;;5.70;2.15;;;;;;;14.61;71.49;99505.31;4393279;32;34134;-90
2023/10/29 08:28:45;;;;;;;2.12;1.77;;;;;;;14.84;70.89;99501.16;4392667;32;34465;-91
2023/10/29 08:31:14;;;;;;;3.08;2.10;;;;;;;14.85;71.53;99497.53;4378482;32;34296;-90
2023/10/29 08:33:44;;;;;;;4.05;2.97;;;;;;;14.53;71.53;99497.87;4385209;32;32943;-87
2023/10/29 08:36:17;;;;;;;1.65;1.52;;;;;;;14.56;72.54;99496.78;4391112;32;33738;-86
2023/10/29 08:38:45;;;;;;;3.92;2.70;;;;;;;14.86;71.18;99491.28;4390577;32;32855;-86
2023/10/29 08:41:16;;;;;;;1.65;1.55;;;;;;;14.88;71.17;99491.19;4390709;32;33448;-86
2023/10/29 08:43:44;;;;;;;5.68;2.85;;;;;;;14.75;71.52;99491.97;4385573;32;33781;-86
2023/10/29 08:46:12;;;;;;;5.03;3.42;;;;;;;15.21;70.23;99488.06;4373900;32;32619;-86
2023/10/29 08:48:40;;;;;;;4.95;0.98;;;;;;;15.47;68.53;99492.44;4392497;32;34285;-86
2023/10/29 08:51:11;;;;;;;3.37;2.03;;;;;;;15.60;68.71;99490.66;4369220;32;32873;-86
2023/10/29 08:53:39;;;;;;;1.92;1.80;;;;;;;15.48;69.73;99496.84;4379839;32;34137;-86
2023/10/29 08:56:07;;;;;;;5.28;2.15;;;;;;;16.06;67.84;99492.78;4389196;32;33416;-85
2023/10/29 08:58:35;;;;;;;2.90;1.23;;;;;;;15.83;68.94;99494.41;4380093;32;32727;-87
2023/10/29 09:01:06;;;;;;;0.95;0.95;;;;;;;16.14;67.81;99489.56;4381212;32;33151;-91
2023/10/29 09:03:35;;;;;;;3.22;1.58;;;;;;;16.33;66.88;99484.63;4392477;32;32762;-86
2023/10/29 09:06:03;;;;;;;0.90;0.90;;;;;;;16.39;65.60;99494.84;4366948;32;33577;-87
2023/10/29 09:08:33;;;;;;;1.12;0.88;;;;;;;16.75;64.85;99494.94;4372495;32;32922;-87
2023/10/29 09:11:02;;;;;;;0.13;0.13;;;;;;;16.98;62.88;99488.75;4384474;32;33064;-87
2023/10/29 09:13:30;;;;;;;0.93;0.75;;;;;;;17.67;61.68;99489.66;4378726;32;33882;-88
2023/10/29 09:15:59;;;;;;;0.47;0.47;;;;;;;17.60;61.30;99488.44;4380965;32;34363;-88
2023/10/29 09:18:28;;;;;;;0.10;0.10;;;;;;;17.95;59.39;99484.03;4393156;32;34082;-88
2023/10/29 09:20:56;;;;;;;0.30;0.30;;;;;;;17.70;60.50;99480.56;4381114;32;32934;-87
2023/10/29 09:23:24;;;;;;;0.25;0.25;;;;;;;17.97;59.41;99480.25;4380126;32;32978;-87
2023/10/29 09:26:01;;;;;;;0.73;0.73;;;;;;;18.14;59.47;99474.41;4382519;32;33527;-87
2023/10/29 09:29:31;;;;;;;0.40;0.40;;;;;;;18.08;58.74;99469.53;4318765;33;34533;-87
2023/10/29 09:32:01;;;;;;;0.13;0.13;;;;;;;18.34;59.25;99477.31;4317249;33;34797;-87
2023/10/29 09:34:29;;;;;;;0.88;0.47;;;;;;;18.75;58.56;99471.25;4317194;33;32879;-87
2023/10/29 09:36:56;;;;;;;0.32;0.30;;;;;;;18.58;58.70;99475.28;4322511;33;33370;-87
2023/10/29 09:39:24;;;;;;;1.85;1.10;;;;;;;18.78;57.59;99470.16;4316370;33;33696;-87
2023/10/29 09:41:55;;;;;;;2.92;1.10;;;;;;;18.80;58.24;99468.19;4317497;33;34133;-90
2023/10/29 09:44:29;;;;;;;0.45;0.45;;;;;;;19.26;57.09;99462.50;4314520;33;32851;-87
2023/10/29 09:47:09;;;;;;;0.82;0.73;;;;;;;19.33;57.24;99460.19;4304976;33;32140;-87
2023/10/29 09:49:37;;;;;;;0.43;0.35;;;;;;;19.79;56.23;99461.56;4305440;33;32323;-84
2023/10/29 09:52:06;;;;;;;7.37;0.57;;;;;;;19.61;55.71;99456.00;4304783;33;33387;-84
2023/10/29 09:54:34;;;;;;;0.57;0.45;;;;;;;20.06;55.34;99443.06;4304559;33;32996;-84
2023/10/29 09:57:03;;;;;;;1.80;1.17;;;;;;;20.23;55.18;99454.16;4310266;33;33719;-85
2023/10/29 09:59:31;;;;;;;0.10;0.10;;;;;;;19.57;55.94;99460.75;4321142;33;32154;-85
2023/10/29 10:02:02;;;;;;;1.30;1.12;;;;;;;19.52;56.75;99462.97;4335599;33;33053;-85
2023/10/29 10:04:31;;;;;;;0.82;0.55;;;;;;;19.97;55.28;99454.59;4319084;33;32892;-85
2023/10/29 10:07:04;;;;;;;0.20;0.20;;;;;;;20.38;55.57;99455.44;4378377;32;33550;-88
2023/10/29 10:09:51;;;;;;;0.28;0.28;;;;;;;20.40;54.74;99450.78;4377532;32;33090;-85
2023/10/29 10:12:19;;;;;;;2.92;1.00;;;;;;;20.74;54.37;99437.00;4373089;32;33318;-85
2023/10/29 10:14:48;;;;;;;0.82;0.82;;;;;;;21.06;53.89;99442.94;4380040;32;33067;-85
2023/10/29 10:17:16;;;;;;;0.55;0.55;;;;;;;21.35;51.50;99437.56;4379958;32;33505;-87
2023/10/29 10:19:43;;;;;;;0.37;0.37;;;;;;;21.45;52.01;99427.63;4379362;32;32692;-85
2023/10/29 10:22:11;;;;;;;0.37;0.37;;;;;;;21.54;51.78;99433.12;4381188;32;32760;-86
2023/10/29 10:24:43;;;;;;;0.00;0.00;;;;;;;21.85;50.13;99425.69;4385292;32;32622;-86
2023/10/29 10:27:16;;;;;;;0.00;0.00;;;;;;;21.33;49.50;99423.44;4378076;32;33298;-87
2023/10/29 10:29:43;;;;;;;0.20;0.20;;;;;;;21.44;48.83;99414.37;4364632;32;33071;-87
2023/10/29 10:32:11;;;;;;;0.00;0.00;;;;;;;21.47;48.85;99420.31;4384954;32;33232;-87
2023/10/29 10:34:50;;;;;;;0.10;0.10;;;;;;;21.46;48.42;99417.78;4393203;32;32538;-87
2023/10/29 10:37:18;;;;;;;0.45;0.45;;;;;;;21.91;48.37;99406.28;4360967;32;32594;-86
2023/10/29 10:39:46;;;;;;;0.00;0.00;;;;;;;22.00;48.22;99410.75;4397613;32;34247;-87
2023/10/29 10:42:23;;;;;;;0.00;0.00;;;;;;;21.66;47.21;99408.66;4392512;32;33258;-87
2023/10/29 10:44:53;;;;;;;0.68;0.68;;;;;;;21.97;47.09;99401.13;4367575;32;33827;-86
2023/10/29 10:47:21;;;;;;;0.15;0.05;;;;;;;21.89;47.73;99406.44;4390004;32;32240;-87
2023/10/29 10:49:49;;;;;;;0.08;0.08;;;;;;;21.90;47.93;99408.13;4391011;32;33959;-87
2023/10/29 10:52:18;;;;;;;0.65;0.43;;;;;;;21.82;47.15;99396.41;4381005;32;34068;-87
2023/10/29 10:54:46;;;;;;;0.45;0.43;;;;;;;22.43;45.89;99401.19;4391393;32;33622;-87
2023/10/29 10:57:15;;;;;;;0.22;0.20;;;;;;;22.16;47.27;99405.59;4379398;32;32487;-87
2023/10/29 10:59:43;;;;;;;0.10;0.00;;;;;;;22.22;46.98;99396.94;4389529;32;32635;-87
2023/10/29 11:02:13;;;;;;;0.00;0.00;;;;;;;22.30;47.11;99404.22;4391904;32;33525;-87
2023/10/29 11:04:41;;;;;;;0.73;0.32;;;;;;;22.70;46.57;99402.97;4394451;32;33387;-87
2023/10/29 11:07:09;;;;;;;22.48;0.45;;;;;;;22.32;46.41;99398.72;4390518;32;32295;-88
2023/10/29 11:09:37;;;;;;;0.52;0.30;;;;;;;22.46;46.58;99379.38;4389988;32;32603;-87
2023/10/29 11:12:05;;;;;;;0.43;0.37;;;;;;;22.71;45.95;99394.72;4380391;32;34128;-88
2023/10/29 11:14:35;;;;;;;0.20;0.20;;;;;;;21.95;46.45;99380.78;4380904;32;32543;-87
2023/10/29 11:17:02;;;;;;;0.37;0.32;;;;;;;22.14;46.88;99394.16;4387038;32;32315;-87
2023/10/29 11:19:47;;;;;;;0.28;0.28;;;;;;;22.04;46.16;99390.66;4379928;32;33043;-87
2023/10/29 11:22:29;;;;;;;6.25;0.35;;;;;;;22.61;45.83;99383.22;4379173;32;33185;-87
2023/10/29 11:25:09;;;;;;;;;;;;;;;22.08;46.46;99392.03;4386826;32;32802;-87
2023/10/29 11:27:47;;;;;;;3.37;0.50;;;;;;;22.76;45.56;99386.19;4377110;32;32433;-87
2023/10/29 11:30:21;;;;;;;0.00;0.00;;;;;;;22.21;45.50;99397.91;4374150;32;32966;-87
2023/10/29 11:33:25;;;;;;;0.10;0.10;;;;;;;22.31;45.25;99397.00;4367922;32;32794;-88
2023/10/29 11:36:31;;;;;;;0.20;0.20;;;;;;;22.22;46.23;99396.94;4390610;32;32813;-87
2023/10/29 11:39:15;;;;;;;1.85;0.40;;;;;;;22.18;46.32;99378.56;4399410;32;34664;-87
2023/10/29 11:41:44;;;;;;;0.00;0.00;;;;;;;22.46;45.51;99368.59;4387684;32;33260;-87
2023/10/29 11:44:19;;;;;;;0.00;0.00;;;;;;;22.75;46.13;99377.28;4367770;32;34299;-86
2023/10/29 11:46:59;;;;;;;0.17;0.17;;;;;;;22.69;45.08;99368.97;4399302;32;34242;-86
2023/10/29 11:49:30;;;;;;;0.30;0.30;;;;;;;22.96;45.14;99374.28;4388396;32;33366;-86
2023/10/29 11:52:01;;;;;;;0.10;0.10;;;;;;;22.84;44.91;99372.81;4380955;32;33156;-87
2023/10/29 11:54:37;;;;;;;0.10;0.00;;;;;;;22.99;45.11;99365.03;4383439;32;34769;-86
2023/10/29 11:57:05;;;;;;;0.03;0.03;;;;;;;22.96;45.34;99366.19;4386352;32;33104;-87
2023/10/29 11:59:34;;;;;;;0.20;0.20;;;;;;;23.34;43.89;99358.72;4390558;32;33900;-86
2023/10/29 12:02:01;;;;;;;2.28;0.88;;;;;;;23.29;43.35;99358.34;4381010;32;33173;-87